sensor_id;sensor_type;location;lat;lon;timestamp;pressure;altitude;pressure_sealevel;temperature;humidity
7109;BME280;29079;41.930;25.558;2023-10-08T00:02:11;99869.47;;;13.34;86.12
7109;BME280;29079;41.930;25.558;2023-10-08T00:05:09;99860.03;;;13.30;86.13
7109;BME280;29079;41.930;25.558;2023-10-08T00:07:58;99861.00;;;13.29;87.22
7109;BME280;29079;41.930;25.558;2023-10-08T00:10:46;99866.94;;;13.23;85.59
7109;BME280;29079;41.930;25.558;2023-10-08T00:13:34;99868.25;;;12.99;85.66
7109;BME280;29079;41.930;25.558;2023-10-08T00:16:26;99858.31;;;13.29;86.18
7109;BME280;29079;41.930;25.558;2023-10-08T00:19:15;99852.22;;;13.47;87.57
7109;BME280;29079;41.930;25.558;2023-10-08T00:22:05;99815.31;;;13.21;84.83
7109;BME280;29079;41.930;25.558;2023-10-08T00:24:54;99852.75;;;13.50;84.79
7109;BME280;29079;41.930;25.558;2023-10-08T00:27:44;99835.53;;;13.53;85.01
7109;BME280;29079;41.930;25.558;2023-10-08T00:30:38;99850.13;;;13.31;86.16
7109;BME280;29079;41.930;25.558;2023-10-08T00:33:26;99844.66;;;13.13;85.08
7109;BME280;29079;41.930;25.558;2023-10-08T00:36:16;99835.66;;;13.14;84.67
7109;BME280;29079;41.930;25.558;2023-10-08T00:39:07;99837.59;;;13.21;87.15
7109;BME280;29079;41.930;25.558;2023-10-08T00:42:01;99834.84;;;13.51;84.86
7109;BME280;29079;41.930;25.558;2023-10-08T00:44:51;99829.31;;;13.05;85.07
7109;BME280;29079;41.930;25.558;2023-10-08T00:47:40;99817.50;;;12.88;86.59
7109;BME280;29079;41.930;25.558;2023-10-08T00:50:30;99815.59;;;13.28;85.96
7109;BME280;29079;41.930;25.558;2023-10-08T00:53:29;99819.19;;;13.09;87.02
7109;BME280;29079;41.930;25.558;2023-10-08T00:56:26;99816.69;;;12.87;86.05
7109;BME280;29079;41.930;25.558;2023-10-08T00:59:33;99768.78;;;12.65;86.15
7109;BME280;29079;41.930;25.558;2023-10-08T01:02:31;99817.25;;;12.81;88.61
7109;BME280;29079;41.930;25.558;2023-10-08T01:05:31;99812.16;;;13.45;86.45
7109;BME280;29079;41.930;25.558;2023-10-08T01:08:40;99816.84;;;13.33;88.55
7109;BME280;29079;41.930;25.558;2023-10-08T01:11:38;99806.00;;;13.25;86.84
7109;BME280;29079;41.930;25.558;2023-10-08T01:14:34;99803.16;;;12.79;88.45
7109;BME280;29079;41.930;25.558;2023-10-08T01:17:23;99804.59;;;13.21;90.38
7109;BME280;29079;41.930;25.558;2023-10-08T01:20:15;99804.44;;;13.22;86.87
7109;BME280;29079;41.930;25.558;2023-10-08T01:23:20;99806.00;;;13.25;87.17
7109;BME280;29079;41.930;25.558;2023-10-08T01:26:13;99803.66;;;13.02;86.75
7109;BME280;29079;41.930;25.558;2023-10-08T01:29:02;99796.66;;;12.82;88.05
7109;BME280;29079;41.930;25.558;2023-10-08T01:31:53;99805.72;;;12.61;88.91
7109;BME280;29079;41.930;25.558;2023-10-08T01:34:43;99804.97;;;12.88;89.53
7109;BME280;29079;41.930;25.558;2023-10-08T01:37:33;99807.91;;;12.95;88.40
7109;BME280;29079;41.930;25.558;2023-10-08T01:40:22;99817.69;;;12.67;89.30
7109;BME280;29079;41.930;25.558;2023-10-08T01:43:10;99804.84;;;12.70;89.97
7109;BME280;29079;41.930;25.558;2023-10-08T01:46:02;99806.84;;;12.68;89.74
7109;BME280;29079;41.930;25.558;2023-10-08T01:48:51;99812.44;;;12.85;89.72
7109;BME280;29079;41.930;25.558;2023-10-08T01:51:46;99801.06;;;12.63;89.66
7109;BME280;29079;41.930;25.558;2023-10-08T01:54:35;99801.50;;;12.59;88.46
7109;BME280;29079;41.930;25.558;2023-10-08T01:57:25;99797.84;;;12.50;89.42
7109;BME280;29079;41.930;25.558;2023-10-08T02:00:14;99795.75;;;12.44;89.38
7109;BME280;29079;41.930;25.558;2023-10-08T02:03:06;99788.19;;;12.86;90.27
7109;BME280;29079;41.930;25.558;2023-10-08T02:05:56;99787.19;;;13.07;88.54
7109;BME280;29079;41.930;25.558;2023-10-08T02:08:46;99801.66;;;12.47;88.40
7109;BME280;29079;41.930;25.558;2023-10-08T02:11:44;99793.34;;;12.11;89.69
7109;BME280;29079;41.930;25.558;2023-10-08T02:14:34;99795.56;;;12.75;87.99
7109;BME280;29079;41.930;25.558;2023-10-08T02:17:22;99799.97;;;12.46;89.90
7109;BME280;29079;41.930;25.558;2023-10-08T02:20:11;99789.50;;;13.20;88.82
7109;BME280;29079;41.930;25.558;2023-10-08T02:22:59;99785.16;;;12.62;89.72
7109;BME280;29079;41.930;25.558;2023-10-08T02:25:47;99769.81;;;12.54;88.82
7109;BME280;29079;41.930;25.558;2023-10-08T02:28:36;99792.09;;;12.45;88.77
7109;BME280;29079;41.930;25.558;2023-10-08T02:31:26;99780.41;;;12.36;89.85
7109;BME280;29079;41.930;25.558;2023-10-08T02:34:14;99782.34;;;12.44;89.57
7109;BME280;29079;41.930;25.558;2023-10-08T02:37:02;99785.88;;;12.15;89.38
7109;BME280;29079;41.930;25.558;2023-10-08T02:39:51;99778.56;;;12.07;88.89
7109;BME280;29079;41.930;25.558;2023-10-08T02:42:39;99780.25;;;11.98;89.29
7109;BME280;29079;41.930;25.558;2023-10-08T02:45:28;99770.81;;;12.04;89.89
7109;BME280;29079;41.930;25.558;2023-10-08T02:48:17;99772.03;;;11.90;89.04
7109;BME280;29079;41.930;25.558;2023-10-08T02:51:07;99751.88;;;11.66;90.03
7109;BME280;29079;41.930;25.558;2023-10-08T02:54:00;99752.56;;;11.49;90.83
7109;BME280;29079;41.930;25.558;2023-10-08T02:56:53;99775.78;;;11.58;91.29
7109;BME280;29079;41.930;25.558;2023-10-08T02:59:45;99771.84;;;11.62;91.25
7109;BME280;29079;41.930;25.558;2023-10-08T03:02:35;99770.16;;;11.61;92.35
7109;BME280;29079;41.930;25.558;2023-10-08T03:05:28;99773.53;;;11.54;92.75
7109;BME280;29079;41.930;25.558;2023-10-08T03:08:22;99769.34;;;11.71;92.91
7109;BME280;29079;41.930;25.558;2023-10-08T03:11:10;99770.34;;;11.79;91.13
7109;BME280;29079;41.930;25.558;2023-10-08T03:14:04;99770.59;;;11.66;90.98
7109;BME280;29079;41.930;25.558;2023-10-08T03:17:01;99763.69;;;11.64;91.23
7109;BME280;29079;41.930;25.558;2023-10-08T03:19:54;99762.28;;;11.60;91.43
7109;BME280;29079;41.930;25.558;2023-10-08T03:22:49;99769.16;;;11.53;90.63
7109;BME280;29079;41.930;25.558;2023-10-08T03:25:37;99743.34;;;11.32;91.44
7109;BME280;29079;41.930;25.558;2023-10-08T03:28:29;99760.41;;;12.01;90.06
7109;BME280;29079;41.930;25.558;2023-10-08T03:31:21;99774.22;;;11.46;91.00
7109;BME280;29079;41.930;25.558;2023-10-08T03:34:19;99770.13;;;11.42;91.13
7109;BME280;29079;41.930;25.558;2023-10-08T03:37:07;99756.13;;;11.69;91.28
7109;BME280;29079;41.930;25.558;2023-10-08T03:39:56;99749.88;;;11.59;90.96
7109;BME280;29079;41.930;25.558;2023-10-08T03:43:09;99770.41;;;11.48;90.54
7109;BME280;29079;41.930;25.558;2023-10-08T03:46:17;99710.09;;;11.15;90.90
7109;BME280;29079;41.930;25.558;2023-10-08T03:49:08;99733.34;;;11.24;89.70
7109;BME280;29079;41.930;25.558;2023-10-08T03:52:02;99762.22;;;11.40;88.63
7109;BME280;29079;41.930;25.558;2023-10-08T03:54:50;99766.34;;;11.54;91.44
7109;BME280;29079;41.930;25.558;2023-10-08T03:57:53;99764.16;;;11.28;88.78
7109;BME280;29079;41.930;25.558;2023-10-08T04:00:45;99768.34;;;11.21;89.43
7109;BME280;29079;41.930;25.558;2023-10-08T04:03:34;99766.47;;;11.12;89.01
7109;BME280;29079;41.930;25.558;2023-10-08T04:06:44;99780.69;;;11.12;89.25
7109;BME280;29079;41.930;25.558;2023-10-08T04:09:37;99775.56;;;11.00;90.08
7109;BME280;29079;41.930;25.558;2023-10-08T04:12:26;99774.03;;;11.38;89.02
7109;BME280;29079;41.930;25.558;2023-10-08T04:15:15;99763.88;;;11.31;89.08
7109;BME280;29079;41.930;25.558;2023-10-08T04:18:04;99766.34;;;11.44;91.75
7109;BME280;29079;41.930;25.558;2023-10-08T04:20:52;99770.34;;;11.29;89.20
7109;BME280;29079;41.930;25.558;2023-10-08T04:23:51;99766.75;;;11.09;89.92
7109;BME280;29079;41.930;25.558;2023-10-08T04:26:40;99718.63;;;10.99;88.97
7109;BME280;29079;41.930;25.558;2023-10-08T04:29:29;99770.34;;;11.29;91.05
7109;BME280;29079;41.930;25.558;2023-10-08T04:32:20;99767.34;;;11.22;89.68
7109;BME280;29079;41.930;25.558;2023-10-08T04:35:11;99767.56;;;11.40;88.84
7109;BME280;29079;41.930;25.558;2023-10-08T04:38:03;99761.69;;;11.06;90.08
7109;BME280;29079;41.930;25.558;2023-10-08T04:40:51;99759.63;;;11.19;87.82
7109;BME280;29079;41.930;25.558;2023-10-08T04:43:39;99762.69;;;10.84;90.26
7109;BME280;29079;41.930;25.558;2023-10-08T04:46:29;99736.06;;;10.51;90.51
7109;BME280;29079;41.930;25.558;2023-10-08T04:49:35;99770.38;;;10.77;90.09
7109;BME280;29079;41.930;25.558;2023-10-08T04:52:31;99773.31;;;10.95;90.29
7109;BME280;29079;41.930;25.558;2023-10-08T04:55:21;99777.56;;;11.07;89.99
7109;BME280;29079;41.930;25.558;2023-10-08T04:58:15;99774.44;;;11.43;88.63
7109;BME280;29079;41.930;25.558;2023-10-08T05:01:17;99770.97;;;11.11;89.43
7109;BME280;29079;41.930;25.558;2023-10-08T05:04:07;99781.03;;;11.29;89.94
7109;BME280;29079;41.930;25.558;2023-10-08T05:07:13;99771.09;;;11.41;89.60
7109;BME280;29079;41.930;25.558;2023-10-08T05:10:26;99763.13;;;11.60;88.51
7109;BME280;29079;41.930;25.558;2023-10-08T05:13:43;99769.66;;;11.37;88.79
7109;BME280;29079;41.930;25.558;2023-10-08T05:16:42;99761.16;;;11.62;89.32
7109;BME280;29079;41.930;25.558;2023-10-08T05:19:46;99769.69;;;11.97;87.70
7109;BME280;29079;41.930;25.558;2023-10-08T05:23:07;99767.66;;;11.89;87.54
7109;BME280;29079;41.930;25.558;2023-10-08T05:26:19;99762.94;;;12.42;89.21
7109;BME280;29079;41.930;25.558;2023-10-08T05:29:18;99767.72;;;12.38;85.18
7109;BME280;29079;41.930;25.558;2023-10-08T05:32:23;99758.81;;;12.47;84.83
7109;BME280;29079;41.930;25.558;2023-10-08T05:35:39;99778.28;;;12.40;84.80
7109;BME280;29079;41.930;25.558;2023-10-08T05:38:37;99770.19;;;12.79;83.66
7109;BME280;29079;41.930;25.558;2023-10-08T05:41:35;99757.84;;;12.39;84.24
7109;BME280;29079;41.930;25.558;2023-10-08T05:44:37;99770.50;;;12.66;84.16
7109;BME280;29079;41.930;25.558;2023-10-08T05:47:26;99775.75;;;12.38;85.12
7109;BME280;29079;41.930;25.558;2023-10-08T05:50:25;99781.88;;;13.25;87.81
7109;BME280;29079;41.930;25.558;2023-10-08T05:53:25;99772.78;;;13.46;84.49
7109;BME280;29079;41.930;25.558;2023-10-08T05:56:32;99775.53;;;12.79;86.00
7109;BME280;29079;41.930;25.558;2023-10-08T05:59:40;99771.78;;;13.09;87.09
7109;BME280;29079;41.930;25.558;2023-10-08T06:02:41;99774.53;;;13.27;86.02
7109;BME280;29079;41.930;25.558;2023-10-08T06:05:47;99765.78;;;12.97;87.30
7109;BME280;29079;41.930;25.558;2023-10-08T06:08:53;99773.88;;;13.53;87.39
7109;BME280;29079;41.930;25.558;2023-10-08T06:12:09;99763.38;;;13.32;87.18
7109;BME280;29079;41.930;25.558;2023-10-08T06:15:07;99763.63;;;13.66;84.93
7109;BME280;29079;41.930;25.558;2023-10-08T06:17:55;99760.63;;;13.69;85.40
7109;BME280;29079;41.930;25.558;2023-10-08T06:20:52;99765.63;;;13.64;84.98
7109;BME280;29079;41.930;25.558;2023-10-08T06:23:41;99733.59;;;13.81;85.35
7109;BME280;29079;41.930;25.558;2023-10-08T06:26:29;99761.81;;;13.85;83.78
7109;BME280;29079;41.930;25.558;2023-10-08T06:29:22;99764.13;;;14.16;83.39
7109;BME280;29079;41.930;25.558;2023-10-08T06:32:15;99752.28;;;14.44;82.96
7109;BME280;29079;41.930;25.558;2023-10-08T06:35:06;99753.00;;;14.47;82.77
7109;BME280;29079;41.930;25.558;2023-10-08T06:37:54;99753.75;;;14.57;82.74
7109;BME280;29079;41.930;25.558;2023-10-08T06:40:53;99735.81;;;14.39;82.14
7109;BME280;29079;41.930;25.558;2023-10-08T06:43:42;99748.84;;;14.52;80.80
7109;BME280;29079;41.930;25.558;2023-10-08T06:46:33;99723.75;;;14.43;82.74
7109;BME280;29079;41.930;25.558;2023-10-08T06:49:22;99749.34;;;14.74;80.58
7109;BME280;29079;41.930;25.558;2023-10-08T06:52:10;99744.84;;;14.74;81.31
7109;BME280;29079;41.930;25.558;2023-10-08T06:55:00;99735.81;;;14.84;81.67
7109;BME280;29079;41.930;25.558;2023-10-08T06:57:49;99737.78;;;15.08;81.34
7109;BME280;29079;41.930;25.558;2023-10-08T07:00:37;99742.09;;;15.27;79.46
7109;BME280;29079;41.930;25.558;2023-10-08T07:03:27;99719.91;;;15.25;79.37
7109;BME280;29079;41.930;25.558;2023-10-08T07:06:17;99736.97;;;15.50;78.73
7109;BME280;29079;41.930;25.558;2023-10-08T07:09:13;99736.81;;;15.60;71.95
7109;BME280;29079;41.930;25.558;2023-10-08T07:12:09;99734.69;;;15.80;68.77
7109;BME280;29079;41.930;25.558;2023-10-08T07:15:00;99729.69;;;16.10;67.47
7109;BME280;29079;41.930;25.558;2023-10-08T07:17:50;99695.38;;;16.12;62.18
7109;BME280;29079;41.930;25.558;2023-10-08T07:20:44;99706.31;;;16.35;62.32
7109;BME280;29079;41.930;25.558;2023-10-08T07:23:40;99713.47;;;16.84;57.78
7109;BME280;29079;41.930;25.558;2023-10-08T07:26:44;99724.56;;;16.97;57.79
7109;BME280;29079;41.930;25.558;2023-10-08T07:29:34;99713.16;;;17.27;56.30
7109;BME280;29079;41.930;25.558;2023-10-08T07:32:22;99718.69;;;17.42;55.70
7109;BME280;29079;41.930;25.558;2023-10-08T07:35:12;99712.97;;;17.68;53.84
7109;BME280;29079;41.930;25.558;2023-10-08T07:38:11;99709.59;;;17.66;55.78
7109;BME280;29079;41.930;25.558;2023-10-08T07:40:59;99708.59;;;17.67;56.16
7109;BME280;29079;41.930;25.558;2023-10-08T07:43:48;99698.59;;;17.75;55.85
7109;BME280;29079;41.930;25.558;2023-10-08T07:46:42;99711.19;;;18.30;51.33
7109;BME280;29079;41.930;25.558;2023-10-08T07:49:31;99688.56;;;18.31;52.02
7109;BME280;29079;41.930;25.558;2023-10-08T07:52:19;99715.94;;;18.27;55.01
7109;BME280;29079;41.930;25.558;2023-10-08T07:55:09;99703.16;;;18.44;51.43
7109;BME280;29079;41.930;25.558;2023-10-08T07:57:57;99702.53;;;18.57;53.20
7109;BME280;29079;41.930;25.558;2023-10-08T08:00:44;99705.78;;;18.68;54.38
7109;BME280;29079;41.930;25.558;2023-10-08T08:03:39;99700.94;;;18.78;51.96
7109;BME280;29079;41.930;25.558;2023-10-08T08:06:27;99692.38;;;18.89;51.38
7109;BME280;29079;41.930;25.558;2023-10-08T08:09:17;99676.16;;;18.89;51.62
7109;BME280;29079;41.930;25.558;2023-10-08T08:12:07;99692.09;;;19.29;48.70
7109;BME280;29079;41.930;25.558;2023-10-08T08:14:58;99656.03;;;19.07;50.45
7109;BME280;29079;41.930;25.558;2023-10-08T08:17:47;99676.00;;;19.42;49.67
7109;BME280;29079;41.930;25.558;2023-10-08T08:20:35;99674.25;;;19.35;50.39
7109;BME280;29079;41.930;25.558;2023-10-08T08:23:25;99667.13;;;19.48;51.65
7109;BME280;29079;41.930;25.558;2023-10-08T08:26:14;99662.88;;;19.97;45.26
7109;BME280;29079;41.930;25.558;2023-10-08T08:29:14;99632.34;;;20.10;44.96
7109;BME280;29079;41.930;25.558;2023-10-08T08:32:03;99660.41;;;20.03;47.40
7109;BME280;29079;41.930;25.558;2023-10-08T08:34:50;99654.31;;;20.22;44.16
7109;BME280;29079;41.930;25.558;2023-10-08T08:37:39;99626.88;;;20.04;47.12
7109;BME280;29079;41.930;25.558;2023-10-08T08:40:27;99650.19;;;20.26;47.79
7109;BME280;29079;41.930;25.558;2023-10-08T08:43:16;99634.22;;;20.38;43.70
7109;BME280;29079;41.930;25.558;2023-10-08T08:46:05;99629.75;;;20.52;45.49
7109;BME280;29079;41.930;25.558;2023-10-08T08:49:00;99638.06;;;20.79;41.95
7109;BME280;29079;41.930;25.558;2023-10-08T08:51:52;99631.19;;;20.90;40.19
7109;BME280;29079;41.930;25.558;2023-10-08T08:54:42;99632.13;;;21.03;41.08
7109;BME280;29079;41.930;25.558;2023-10-08T08:57:29;99629.81;;;21.00;40.30
7109;BME280;29079;41.930;25.558;2023-10-08T09:00:19;99619.78;;;21.01;39.66
7109;BME280;29079;41.930;25.558;2023-10-08T09:03:09;99619.63;;;21.16;40.22
7109;BME280;29079;41.930;25.558;2023-10-08T09:06:00;99622.63;;;21.34;39.30
7109;BME280;29079;41.930;25.558;2023-10-08T09:08:48;99623.38;;;21.70;37.72
7109;BME280;29079;41.930;25.558;2023-10-08T09:11:38;99608.66;;;21.44;39.49
7109;BME280;29079;41.930;25.558;2023-10-08T09:14:28;99611.00;;;21.54;39.83
7109;BME280;29079;41.930;25.558;2023-10-08T09:17:18;99609.16;;;21.74;39.62
7109;BME280;29079;41.930;25.558;2023-10-08T09:20:11;99596.41;;;21.82;39.66
7109;BME280;29079;41.930;25.558;2023-10-08T09:23:06;99564.44;;;22.04;38.15
7109;BME280;29079;41.930;25.558;2023-10-08T09:25:55;99590.34;;;22.33;37.47
7109;BME280;29079;41.930;25.558;2023-10-08T09:28:49;99576.13;;;22.31;35.40
7109;BME280;29079;41.930;25.558;2023-10-08T09:31:38;99574.22;;;22.32;35.24
7109;BME280;29079;41.930;25.558;2023-10-08T09:34:27;99579.88;;;22.50;36.41
7109;BME280;29079;41.930;25.558;2023-10-08T09:37:17;99574.50;;;22.89;34.29
7109;BME280;29079;41.930;25.558;2023-10-08T09:40:11;99577.84;;;22.91;34.43
7109;BME280;29079;41.930;25.558;2023-10-08T09:42:59;99555.50;;;22.75;35.48
7109;BME280;29079;41.930;25.558;2023-10-08T09:45:52;99562.19;;;22.80;34.94
7109;BME280;29079;41.930;25.558;2023-10-08T09:48:49;99556.28;;;22.96;34.37
7109;BME280;29079;41.930;25.558;2023-10-08T09:51:40;99543.50;;;22.97;34.44
7109;BME280;29079;41.930;25.558;2023-10-08T09:54:33;99557.47;;;23.00;34.49
7109;BME280;29079;41.930;25.558;2023-10-08T09:57:26;99549.50;;;23.05;33.95
7109;BME280;29079;41.930;25.558;2023-10-08T10:00:15;99549.06;;;23.08;34.17
7109;BME280;29079;41.930;25.558;2023-10-08T10:03:05;99545.81;;;23.38;33.78
7109;BME280;29079;41.930;25.558;2023-10-08T10:05:54;99539.34;;;23.33;34.72
7109;BME280;29079;41.930;25.558;2023-10-08T10:08:48;99535.16;;;23.30;34.08
7109;BME280;29079;41.930;25.558;2023-10-08T10:11:37;99521.75;;;23.60;32.98
7109;BME280;29079;41.930;25.558;2023-10-08T10:14:25;99529.84;;;23.67;32.98
7109;BME280;29079;41.930;25.558;2023-10-08T10:17:14;99529.63;;;23.43;34.47
7109;BME280;29079;41.930;25.558;2023-10-08T10:20:25;99520.63;;;23.68;33.14
7109;BME280;29079;41.930;25.558;2023-10-08T10:23:36;99515.63;;;23.65;33.80
7109;BME280;29079;41.930;25.558;2023-10-08T10:26:28;99523.34;;;23.68;34.18
7109;BME280;29079;41.930;25.558;2023-10-08T10:29:24;99513.16;;;23.57;34.10
7109;BME280;29079;41.930;25.558;2023-10-08T10:32:15;99487.34;;;23.66;33.67
7109;BME280;29079;41.930;25.558;2023-10-08T10:35:04;99510.94;;;23.97;32.81
7109;BME280;29079;41.930;25.558;2023-10-08T10:37:53;99502.09;;;23.77;33.89
7109;BME280;29079;41.930;25.558;2023-10-08T10:40:42;99506.25;;;23.86;33.96
7109;BME280;29079;41.930;25.558;2023-10-08T10:43:31;99501.22;;;23.83;33.58
7109;BME280;29079;41.930;25.558;2023-10-08T10:46:20;99491.50;;;23.94;33.01
7109;BME280;29079;41.930;25.558;2023-10-08T10:49:17;99490.94;;;23.85;33.79
7109;BME280;29079;41.930;25.558;2023-10-08T10:52:08;99494.81;;;23.96;34.54
7109;BME280;29079;41.930;25.558;2023-10-08T10:55:06;99492.13;;;24.14;33.02
7109;BME280;29079;41.930;25.558;2023-10-08T10:58:07;99480.47;;;24.07;34.07
7109;BME280;29079;41.930;25.558;2023-10-08T11:00:58;99475.84;;;24.08;33.69
7109;BME280;29079;41.930;25.558;2023-10-08T11:03:56;99456.69;;;24.14;33.15
7109;BME280;29079;41.930;25.558;2023-10-08T11:06:47;99457.44;;;24.03;34.00
7109;BME280;29079;41.930;25.558;2023-10-08T11:09:37;99462.97;;;24.33;33.87
7109;BME280;29079;41.930;25.558;2023-10-08T11:12:25;99460.00;;;24.16;33.93
7109;BME280;29079;41.930;25.558;2023-10-08T11:15:29;99448.41;;;24.40;33.62
7109;BME280;29079;41.930;25.558;2023-10-08T11:18:26;99442.66;;;24.29;33.65
7109;BME280;29079;41.930;25.558;2023-10-08T11:21:17;99444.88;;;24.39;33.93
7109;BME280;29079;41.930;25.558;2023-10-08T11:24:11;99446.38;;;24.35;33.10
7109;BME280;29079;41.930;25.558;2023-10-08T11:27:11;99437.75;;;24.38;33.53
7109;BME280;29079;41.930;25.558;2023-10-08T11:30:15;99436.56;;;24.34;33.41
7109;BME280;29079;41.930;25.558;2023-10-08T11:33:04;99428.31;;;24.71;32.78
7109;BME280;29079;41.930;25.558;2023-10-08T11:35:57;99415.25;;;24.73;32.81
7109;BME280;29079;41.930;25.558;2023-10-08T11:38:47;99420.78;;;24.36;33.38
7109;BME280;29079;41.930;25.558;2023-10-08T11:41:37;99408.94;;;24.61;33.22
7109;BME280;29079;41.930;25.558;2023-10-08T11:44:36;99410.16;;;24.65;33.29
7109;BME280;29079;41.930;25.558;2023-10-08T11:47:26;99403.31;;;24.56;33.52
7109;BME280;29079;41.930;25.558;2023-10-08T11:50:25;99379.50;;;24.32;34.17
7109;BME280;29079;41.930;25.558;2023-10-08T11:53:25;99394.25;;;24.62;33.75
7109;BME280;29079;41.930;25.558;2023-10-08T11:56:14;99382.41;;;24.68;33.87
7109;BME280;29079;41.930;25.558;2023-10-08T11:59:02;99362.72;;;24.66;33.98
7109;BME280;29079;41.930;25.558;2023-10-08T12:01:55;99372.22;;;24.75;33.81
7109;BME280;29079;41.930;25.558;2023-10-08T12:04:43;99360.94;;;24.72;33.31
7109;BME280;29079;41.930;25.558;2023-10-08T12:07:34;99367.59;;;24.76;33.57
7109;BME280;29079;41.930;25.558;2023-10-08T12:10:26;99364.63;;;24.77;33.72
7109;BME280;29079;41.930;25.558;2023-10-08T12:13:19;99341.47;;;24.68;33.35
7109;BME280;29079;41.930;25.558;2023-10-08T12:16:12;99339.75;;;24.55;34.51
7109;BME280;29079;41.930;25.558;2023-10-08T12:19:04;99345.91;;;24.81;33.66
7109;BME280;29079;41.930;25.558;2023-10-08T12:22:02;99341.84;;;24.72;34.50
7109;BME280;29079;41.930;25.558;2023-10-08T12:24:50;99349.63;;;25.10;33.43
7109;BME280;29079;41.930;25.558;2023-10-08T12:27:38;99346.53;;;25.07;33.61
7109;BME280;29079;41.930;25.558;2023-10-08T12:30:28;99347.91;;;24.85;33.88
7109;BME280;29079;41.930;25.558;2023-10-08T12:33:18;99314.94;;;24.87;33.55
7109;BME280;29079;41.930;25.558;2023-10-08T12:36:06;99325.28;;;24.97;33.63
7109;BME280;29079;41.930;25.558;2023-10-08T12:38:58;99320.41;;;25.11;33.41
7109;BME280;29079;41.930;25.558;2023-10-08T12:41:54;99297.97;;;24.85;35.17
7109;BME280;29079;41.930;25.558;2023-10-08T12:44:46;99326.00;;;25.04;33.95
7109;BME280;29079;41.930;25.558;2023-10-08T12:47:36;99316.13;;;25.15;33.65
7109;BME280;29079;41.930;25.558;2023-10-08T12:50:27;99335.25;;;25.27;33.67
7109;BME280;29079;41.930;25.558;2023-10-08T12:53:21;99320.53;;;25.04;34.05
7109;BME280;29079;41.930;25.558;2023-10-08T12:56:13;99321.34;;;24.93;34.84
7109;BME280;29079;41.930;25.558;2023-10-08T12:59:02;99314.03;;;25.17;33.79
7109;BME280;29079;41.930;25.558;2023-10-08T13:01:53;99315.19;;;25.09;34.25
7109;BME280;29079;41.930;25.558;2023-10-08T13:04:43;99318.16;;;25.19;33.61
7109;BME280;29079;41.930;25.558;2023-10-08T13:07:32;99315.56;;;25.01;33.89
7109;BME280;29079;41.930;25.558;2023-10-08T13:10:28;99313.56;;;25.08;34.09
7109;BME280;29079;41.930;25.558;2023-10-08T13:13:17;99310.53;;;24.98;34.09
7109;BME280;29079;41.930;25.558;2023-10-08T13:16:05;99298.09;;;24.90;34.29
7109;BME280;29079;41.930;25.558;2023-10-08T13:18:54;99295.13;;;25.03;34.09
7109;BME280;29079;41.930;25.558;2023-10-08T13:21:46;99312.69;;;25.08;34.82
7109;BME280;29079;41.930;25.558;2023-10-08T13:24:39;99308.19;;;25.01;34.05
7109;BME280;29079;41.930;25.558;2023-10-08T13:27:28;99300.09;;;24.95;34.40
7109;BME280;29079;41.930;25.558;2023-10-08T13:30:16;99299.03;;;25.08;34.01
7109;BME280;29079;41.930;25.558;2023-10-08T13:33:04;99299.19;;;25.01;34.63
7109;BME280;29079;41.930;25.558;2023-10-08T13:35:55;99304.41;;;25.14;34.40
7109;BME280;29079;41.930;25.558;2023-10-08T13:39:04;99296.31;;;25.08;33.68
7109;BME280;29079;41.930;25.558;2023-10-08T13:41:56;99300.00;;;25.13;33.75
7109;BME280;29079;41.930;25.558;2023-10-08T13:44:48;99298.94;;;25.38;33.42
7109;BME280;29079;41.930;25.558;2023-10-08T13:47:36;99288.25;;;25.01;34.35
7109;BME280;29079;41.930;25.558;2023-10-08T13:50:26;99296.78;;;24.93;34.87
7109;BME280;29079;41.930;25.558;2023-10-08T13:53:17;99240.91;;;24.83;34.11
7109;BME280;29079;41.930;25.558;2023-10-08T13:56:08;99298.94;;;25.02;34.32
7109;BME280;29079;41.930;25.558;2023-10-08T13:58:59;99292.03;;;25.24;33.63
7109;BME280;29079;41.930;25.558;2023-10-08T14:01:52;99286.81;;;25.10;33.84
7109;BME280;29079;41.930;25.558;2023-10-08T14:04:42;99293.34;;;25.09;33.78
7109;BME280;29079;41.930;25.558;2023-10-08T14:07:31;99285.50;;;24.89;34.49
7109;BME280;29079;41.930;25.558;2023-10-08T14:10:21;99283.75;;;25.07;34.19
7109;BME280;29079;41.930;25.558;2023-10-08T14:13:17;99298.09;;;25.14;33.75
7109;BME280;29079;41.930;25.558;2023-10-08T14:16:05;99288.59;;;25.16;33.76
7109;BME280;29079;41.930;25.558;2023-10-08T14:18:55;99292.06;;;25.00;34.67
7109;BME280;29079;41.930;25.558;2023-10-08T14:21:46;99292.53;;;24.97;34.02
7109;BME280;29079;41.930;25.558;2023-10-08T14:24:40;99279.47;;;24.99;33.83
7109;BME280;29079;41.930;25.558;2023-10-08T14:27:28;99292.19;;;25.17;33.54
7109;BME280;29079;41.930;25.558;2023-10-08T14:30:20;99293.97;;;24.99;33.76
7109;BME280;29079;41.930;25.558;2023-10-08T14:33:10;99294.16;;;24.98;33.70
7109;BME280;29079;41.930;25.558;2023-10-08T14:36:10;99293.00;;;24.94;33.34
7109;BME280;29079;41.930;25.558;2023-10-08T14:39:15;99284.31;;;24.73;34.07
7109;BME280;29079;41.930;25.558;2023-10-08T14:42:21;99293.16;;;24.57;34.29
7109;BME280;29079;41.930;25.558;2023-10-08T14:45:29;99291.31;;;24.69;33.92
7109;BME280;29079;41.930;25.558;2023-10-08T14:48:20;99292.47;;;24.61;33.78
7109;BME280;29079;41.930;25.558;2023-10-08T14:51:09;99284.19;;;24.68;33.47
7109;BME280;29079;41.930;25.558;2023-10-08T14:54:06;99289.75;;;24.61;33.74
7109;BME280;29079;41.930;25.558;2023-10-08T14:56:55;99141.31;;;23.42;34.86
7109;BME280;29079;41.930;25.558;2023-10-08T14:59:43;99283.03;;;24.45;34.11
7109;BME280;29079;41.930;25.558;2023-10-08T15:02:33;99305.56;;;24.41;34.28
7109;BME280;29079;41.930;25.558;2023-10-08T15:05:21;99304.53;;;24.54;33.85
7109;BME280;29079;41.930;25.558;2023-10-08T15:08:09;99313.00;;;24.33;34.52
7109;BME280;29079;41.930;25.558;2023-10-08T15:10:58;99322.38;;;24.38;34.41
7109;BME280;29079;41.930;25.558;2023-10-08T15:13:46;99297.34;;;24.29;34.10
7109;BME280;29079;41.930;25.558;2023-10-08T15:16:36;99319.63;;;24.26;35.81